sensor_id;sensor_type;location;lat;lon;timestamp;P1;durP1;ratioP1;P2;durP2;ratioP2
23360;SDS011;11852;50.082;18.554;2023-07-24T00:00:32;6.8;;;3.3;;
23360;SDS011;11852;50.082;18.554;2023-07-24T00:01:37;8.5;;;3.6;;
23360;SDS011;11852;50.082;18.554;2023-07-24T00:02:42;7.0;;;3.5;;
23360;SDS011;11852;50.082;18.554;2023-07-24T00:03:47;8.3;;;3.7;;
23360;SDS011;11852;50.082;18.554;2023-07-24T00:04:51;8.3;;;3.6;;
23360;SDS011;11852;50.082;18.554;2023-07-24T00:05:59;7.3;;;3.8;;
23360;SDS011;11852;50.082;18.554;2023-07-24T00:07:04;8.2;;;3.7;;
23360;SDS011;11852;50.082;18.554;2023-07-24T00:08:10;7.6;;;3.9;;
23360;SDS011;11852;50.082;18.554;2023-07-24T00:09:16;8.2;;;3.7;;
23360;SDS011;11852;50.082;18.554;2023-07-24T00:10:21;8.4;;;3.8;;
23360;SDS011;11852;50.082;18.554;2023-07-24T00:11:26;7.3;;;3.5;;
23360;SDS011;11852;50.082;18.554;2023-07-24T00:12:31;6.7;;;3.6;;
23360;SDS011;11852;50.082;18.554;2023-07-24T00:13:36;6.9;;;3.6;;
23360;SDS011;11852;50.082;18.554;2023-07-24T00:14:42;8.1;;;3.7;;
23360;SDS011;11852;50.082;18.554;2023-07-24T00:15:48;8.0;;;3.8;;
23360;SDS011;11852;50.082;18.554;2023-07-24T00:16:52;7.0;;;3.5;;
23360;SDS011;11852;50.082;18.554;2023-07-24T00:17:57;6.9;;;3.5;;
23360;SDS011;11852;50.082;18.554;2023-07-24T00:19:02;7.3;;;3.4;;
23360;SDS011;11852;50.082;18.554;2023-07-24T00:20:07;7.1;;;3.7;;
23360;SDS011;11852;50.082;18.554;2023-07-24T00:21:12;6.7;;;3.4;;
23360;SDS011;11852;50.082;18.554;2023-07-24T00:22:17;6.8;;;3.5;;
23360;SDS011;11852;50.082;18.554;2023-07-24T00:23:22;7.6;;;3.6;;
23360;SDS011;11852;50.082;18.554;2023-07-24T00:24:27;6.5;;;3.1;;
23360;SDS011;11852;50.082;18.554;2023-07-24T00:25:37;8.6;;;3.5;;
23360;SDS011;11852;50.082;18.554;2023-07-24T00:26:43;6.3;;;3.6;;
23360;SDS011;11852;50.082;18.554;2023-07-24T00:27:50;6.4;;;3.4;;
23360;SDS011;11852;50.082;18.554;2023-07-24T00:28:55;7.0;;;3.4;;
23360;SDS011;11852;50.082;18.554;2023-07-24T00:30:00;8.0;;;3.6;;
23360;SDS011;11852;50.082;18.554;2023-07-24T00:31:05;6.6;;;3.7;;
23360;SDS011;11852;50.082;18.554;2023-07-24T00:32:11;9.2;;;4.0;;
23360;SDS011;11852;50.082;18.554;2023-07-24T00:33:15;8.5;;;4.3;;
23360;SDS011;11852;50.082;18.554;2023-07-24T00:34:21;10.1;;;4.1;;
23360;SDS011;11852;50.082;18.554;2023-07-24T00:35:25;9.3;;;4.3;;
23360;SDS011;11852;50.082;18.554;2023-07-24T00:36:33;8.8;;;4.3;;
23360;SDS011;11852;50.082;18.554;2023-07-24T00:37:39;9.0;;;4.3;;
23360;SDS011;11852;50.082;18.554;2023-07-24T00:38:44;10.3;;;4.2;;
23360;SDS011;11852;50.082;18.554;2023-07-24T00:39:49;10.8;;;4.4;;
23360;SDS011;11852;50.082;18.554;2023-07-24T00:40:53;9.9;;;4.4;;
23360;SDS011;11852;50.082;18.554;2023-07-24T00:41:58;7.8;;;3.9;;
23360;SDS011;11852;50.082;18.554;2023-07-24T00:43:03;8.4;;;4.1;;
23360;SDS011;11852;50.082;18.554;2023-07-24T00:44:08;9.1;;;4.3;;
23360;SDS011;11852;50.082;18.554;2023-07-24T00:45:12;8.5;;;4.2;;
23360;SDS011;11852;50.082;18.554;2023-07-24T00:46:17;9.7;;;4.7;;
23360;SDS011;11852;50.082;18.554;2023-07-24T00:47:22;9.4;;;4.5;;
23360;SDS011;11852;50.082;18.554;2023-07-24T00:48:28;10.1;;;4.3;;
23360;SDS011;11852;50.082;18.554;2023-07-24T00:49:34;9.4;;;4.3;;
23360;SDS011;11852;50.082;18.554;2023-07-24T00:50:39;9.2;;;4.5;;
23360;SDS011;11852;50.082;18.554;2023-07-24T00:51:43;9.7;;;4.6;;
23360;SDS011;11852;50.082;18.554;2023-07-24T00:52:48;9.7;;;4.6;;
23360;SDS011;11852;50.082;18.554;2023-07-24T00:53:56;9.6;;;4.8;;
23360;SDS011;11852;50.082;18.554;2023-07-24T00:55:00;10.3;;;5.1;;
23360;SDS011;11852;50.082;18.554;2023-07-24T00:56:05;9.3;;;4.7;;
23360;SDS011;11852;50.082;18.554;2023-07-24T00:57:11;9.7;;;4.8;;
23360;SDS011;11852;50.082;18.554;2023-07-24T00:58:17;10.7;;;4.9;;
23360;SDS011;11852;50.082;18.554;2023-07-24T00:59:22;10.0;;;4.4;;
23360;SDS011;11852;50.082;18.554;2023-07-24T01:00:27;9.7;;;4.9;;
23360;SDS011;11852;50.082;18.554;2023-07-24T01:01:32;11.2;;;4.8;;
23360;SDS011;11852;50.082;18.554;2023-07-24T01:02:37;9.7;;;4.4;;
23360;SDS011;11852;50.082;18.554;2023-07-24T01:03:41;9.5;;;4.7;;
23360;SDS011;11852;50.082;18.554;2023-07-24T01:04:46;9.2;;;4.4;;
23360;SDS011;11852;50.082;18.554;2023-07-24T01:05:52;9.1;;;4.4;;
23360;SDS011;11852;50.082;18.554;2023-07-24T01:06:56;9.5;;;4.4;;
23360;SDS011;11852;50.082;18.554;2023-07-24T01:08:01;10.5;;;4.7;;
23360;SDS011;11852;50.082;18.554;2023-07-24T01:09:08;11.3;;;4.5;;
23360;SDS011;11852;50.082;18.554;2023-07-24T01:10:13;10.5;;;4.9;;
23360;SDS011;11852;50.082;18.554;2023-07-24T01:11:19;11.7;;;4.8;;
23360;SDS011;11852;50.082;18.554;2023-07-24T01:12:26;10.4;;;4.7;;
23360;SDS011;11852;50.082;18.554;2023-07-24T01:13:28;9.9;;;4.8;;
23360;SDS011;11852;50.082;18.554;2023-07-24T01:15:59;11.4;;;5.3;;
23360;SDS011;11852;50.082;18.554;2023-07-24T01:16:59;12.3;;;4.8;;
23360;SDS011;11852;50.082;18.554;2023-07-24T01:18:06;9.1;;;4.5;;
23360;SDS011;11852;50.082;18.554;2023-07-24T01:19:13;10.2;;;4.5;;
23360;SDS011;11852;50.082;18.554;2023-07-24T01:20:17;9.0;;;4.7;;
23360;SDS011;11852;50.082;18.554;2023-07-24T01:21:24;7.2;;;4.0;;
23360;SDS011;11852;50.082;18.554;2023-07-24T01:25:54;6.2;;;3.5;;
23360;SDS011;11852;50.082;18.554;2023-07-24T01:27:02;7.6;;;3.5;;
23360;SDS011;11852;50.082;18.554;2023-07-24T01:28:07;7.7;;;3.5;;
23360;SDS011;11852;50.082;18.554;2023-07-24T01:29:12;5.8;;;3.4;;
23360;SDS011;11852;50.082;18.554;2023-07-24T01:30:17;7.2;;;3.3;;
23360;SDS011;11852;50.082;18.554;2023-07-24T01:31:21;6.4;;;3.3;;
23360;SDS011;11852;50.082;18.554;2023-07-24T01:32:26;6.5;;;3.6;;
23360;SDS011;11852;50.082;18.554;2023-07-24T01:33:31;6.4;;;3.4;;
23360;SDS011;11852;50.082;18.554;2023-07-24T01:34:36;5.7;;;3.3;;
23360;SDS011;11852;50.082;18.554;2023-07-24T01:35:41;6.6;;;3.3;;
23360;SDS011;11852;50.082;18.554;2023-07-24T01:36:46;5.9;;;3.5;;
23360;SDS011;11852;50.082;18.554;2023-07-24T01:37:51;6.3;;;3.2;;
23360;SDS011;11852;50.082;18.554;2023-07-24T01:38:56;5.6;;;3.1;;
23360;SDS011;11852;50.082;18.554;2023-07-24T01:40:02;7.2;;;3.2;;
23360;SDS011;11852;50.082;18.554;2023-07-24T01:41:08;6.4;;;3.5;;
23360;SDS011;11852;50.082;18.554;2023-07-24T01:42:12;7.5;;;3.2;;
23360;SDS011;11852;50.082;18.554;2023-07-24T01:43:18;6.9;;;3.2;;
23360;SDS011;11852;50.082;18.554;2023-07-24T01:44:23;6.4;;;3.2;;
23360;SDS011;11852;50.082;18.554;2023-07-24T01:45:28;5.9;;;3.2;;
23360;SDS011;11852;50.082;18.554;2023-07-24T01:46:33;6.2;;;3.3;;
23360;SDS011;11852;50.082;18.554;2023-07-24T01:47:38;6.1;;;3.2;;
23360;SDS011;11852;50.082;18.554;2023-07-24T01:48:42;6.0;;;3.2;;
23360;SDS011;11852;50.082;18.554;2023-07-24T01:49:47;7.1;;;3.2;;
23360;SDS011;11852;50.082;18.554;2023-07-24T01:50:52;5.4;;;3.4;;
23360;SDS011;11852;50.082;18.554;2023-07-24T01:51:57;6.4;;;3.6;;
23360;SDS011;11852;50.082;18.554;2023-07-24T01:53:02;7.0;;;3.2;;
23360;SDS011;11852;50.082;18.554;2023-07-24T01:54:06;7.2;;;3.3;;
23360;SDS011;11852;50.082;18.554;2023-07-24T01:55:11;6.7;;;3.3;;
23360;SDS011;11852;50.082;18.554;2023-07-24T01:56:16;7.1;;;3.7;;
23360;SDS011;11852;50.082;18.554;2023-07-24T01:57:21;5.7;;;3.4;;
23360;SDS011;11852;50.082;18.554;2023-07-24T01:58:25;6.5;;;3.3;;
23360;SDS011;11852;50.082;18.554;2023-07-24T01:59:30;5.9;;;3.4;;
23360;SDS011;11852;50.082;18.554;2023-07-24T02:00:35;6.9;;;3.2;;
23360;SDS011;11852;50.082;18.554;2023-07-24T02:01:40;6.2;;;3.5;;
23360;SDS011;11852;50.082;18.554;2023-07-24T02:02:46;6.0;;;3.4;;
23360;SDS011;11852;50.082;18.554;2023-07-24T02:03:53;6.7;;;3.3;;
23360;SDS011;11852;50.082;18.554;2023-07-24T02:04:58;6.7;;;3.0;;
23360;SDS011;11852;50.082;18.554;2023-07-24T02:06:03;5.3;;;3.2;;
23360;SDS011;11852;50.082;18.554;2023-07-24T02:07:08;7.9;;;3.3;;
23360;SDS011;11852;50.082;18.554;2023-07-24T02:08:15;6.2;;;3.4;;
23360;SDS011;11852;50.082;18.554;2023-07-24T02:09:20;5.6;;;3.2;;
23360;SDS011;11852;50.082;18.554;2023-07-24T02:10:26;7.1;;;3.3;;
23360;SDS011;11852;50.082;18.554;2023-07-24T02:11:31;6.3;;;3.5;;
23360;SDS011;11852;50.082;18.554;2023-07-24T02:12:36;6.2;;;3.5;;
23360;SDS011;11852;50.082;18.554;2023-07-24T02:13:43;6.2;;;3.8;;
23360;SDS011;11852;50.082;18.554;2023-07-24T02:14:49;6.4;;;3.4;;
23360;SDS011;11852;50.082;18.554;2023-07-24T02:15:54;6.8;;;3.7;;
23360;SDS011;11852;50.082;18.554;2023-07-24T02:16:59;6.3;;;3.5;;
23360;SDS011;11852;50.082;18.554;2023-07-24T02:18:04;7.6;;;3.7;;
23360;SDS011;11852;50.082;18.554;2023-07-24T02:19:09;6.6;;;3.8;;
23360;SDS011;11852;50.082;18.554;2023-07-24T02:20:14;7.3;;;3.5;;
23360;SDS011;11852;50.082;18.554;2023-07-24T02:21:19;8.0;;;3.5;;
23360;SDS011;11852;50.082;18.554;2023-07-24T02:22:25;6.2;;;3.6;;
23360;SDS011;11852;50.082;18.554;2023-07-24T02:23:30;7.9;;;3.9;;
23360;SDS011;11852;50.082;18.554;2023-07-24T02:24:35;5.6;;;3.4;;
23360;SDS011;11852;50.082;18.554;2023-07-24T02:25:39;6.3;;;3.3;;
23360;SDS011;11852;50.082;18.554;2023-07-24T02:26:44;7.2;;;3.6;;
23360;SDS011;11852;50.082;18.554;2023-07-24T02:27:50;6.5;;;3.8;;
23360;SDS011;11852;50.082;18.554;2023-07-24T02:28:55;8.4;;;4.0;;
23360;SDS011;11852;50.082;18.554;2023-07-24T02:30:01;7.7;;;3.7;;
23360;SDS011;11852;50.082;18.554;2023-07-24T02:31:05;10.3;;;4.7;;
23360;SDS011;11852;50.082;18.554;2023-07-24T02:32:10;9.9;;;4.3;;
23360;SDS011;11852;50.082;18.554;2023-07-24T02:33:14;9.4;;;4.7;;
23360;SDS011;11852;50.082;18.554;2023-07-24T02:34:24;9.0;;;4.5;;
23360;SDS011;11852;50.082;18.554;2023-07-24T02:35:28;7.9;;;4.4;;
23360;SDS011;11852;50.082;18.554;2023-07-24T02:36:34;7.2;;;4.1;;
23360;SDS011;11852;50.082;18.554;2023-07-24T02:37:40;7.7;;;4.1;;
23360;SDS011;11852;50.082;18.554;2023-07-24T02:38:46;7.1;;;3.8;;
23360;SDS011;11852;50.082;18.554;2023-07-24T02:39:52;8.0;;;3.8;;
23360;SDS011;11852;50.082;18.554;2023-07-24T02:40:58;6.6;;;3.9;;
23360;SDS011;11852;50.082;18.554;2023-07-24T02:42:04;8.4;;;4.2;;
23360;SDS011;11852;50.082;18.554;2023-07-24T02:43:10;7.3;;;4.0;;
23360;SDS011;11852;50.082;18.554;2023-07-24T02:44:16;7.2;;;4.1;;
23360;SDS011;11852;50.082;18.554;2023-07-24T02:45:22;9.1;;;4.4;;
23360;SDS011;11852;50.082;18.554;2023-07-24T02:46:27;7.6;;;4.0;;
23360;SDS011;11852;50.082;18.554;2023-07-24T02:47:32;8.1;;;3.9;;
23360;SDS011;11852;50.082;18.554;2023-07-24T02:48:37;7.1;;;3.9;;
23360;SDS011;11852;50.082;18.554;2023-07-24T02:49:42;7.0;;;3.6;;
23360;SDS011;11852;50.082;18.554;2023-07-24T02:50:49;8.2;;;3.7;;
23360;SDS011;11852;50.082;18.554;2023-07-24T02:51:55;7.4;;;3.8;;
23360;SDS011;11852;50.082;18.554;2023-07-24T02:53:00;7.2;;;3.5;;
23360;SDS011;11852;50.082;18.554;2023-07-24T02:54:06;7.0;;;3.6;;
23360;SDS011;11852;50.082;18.554;2023-07-24T02:55:11;6.6;;;3.7;;
23360;SDS011;11852;50.082;18.554;2023-07-24T02:56:16;8.0;;;3.6;;
23360;SDS011;11852;50.082;18.554;2023-07-24T02:57:20;6.3;;;3.7;;
23360;SDS011;11852;50.082;18.554;2023-07-24T02:58:25;7.0;;;3.8;;
23360;SDS011;11852;50.082;18.554;2023-07-24T02:59:30;6.7;;;3.5;;
23360;SDS011;11852;50.082;18.554;2023-07-24T03:00:35;6.6;;;3.8;;
23360;SDS011;11852;50.082;18.554;2023-07-24T03:01:40;7.5;;;3.7;;
23360;SDS011;11852;50.082;18.554;2023-07-24T03:02:45;8.3;;;3.9;;
23360;SDS011;11852;50.082;18.554;2023-07-24T03:03:49;7.7;;;3.7;;
23360;SDS011;11852;50.082;18.554;2023-07-24T03:04:55;6.2;;;3.7;;
23360;SDS011;11852;50.082;18.554;2023-07-24T03:06:01;6.4;;;3.5;;
23360;SDS011;11852;50.082;18.554;2023-07-24T03:07:06;6.2;;;3.7;;
23360;SDS011;11852;50.082;18.554;2023-07-24T03:08:13;8.0;;;3.7;;
23360;SDS011;11852;50.082;18.554;2023-07-24T03:09:18;7.9;;;3.9;;
23360;SDS011;11852;50.082;18.554;2023-07-24T03:10:23;8.6;;;4.3;;
23360;SDS011;11852;50.082;18.554;2023-07-24T03:11:27;8.1;;;3.9;;
23360;SDS011;11852;50.082;18.554;2023-07-24T03:12:32;7.0;;;3.9;;
23360;SDS011;11852;50.082;18.554;2023-07-24T03:13:38;8.0;;;4.1;;
23360;SDS011;11852;50.082;18.554;2023-07-24T03:14:44;7.3;;;4.2;;
23360;SDS011;11852;50.082;18.554;2023-07-24T03:15:53;6.8;;;3.7;;
23360;SDS011;11852;50.082;18.554;2023-07-24T03:16:57;8.5;;;4.2;;
23360;SDS011;11852;50.082;18.554;2023-07-24T03:18:02;6.9;;;3.7;;
23360;SDS011;11852;50.082;18.554;2023-07-24T03:19:08;7.6;;;3.5;;
23360;SDS011;11852;50.082;18.554;2023-07-24T03:20:17;6.9;;;3.7;;
23360;SDS011;11852;50.082;18.554;2023-07-24T03:21:22;7.3;;;3.8;;
23360;SDS011;11852;50.082;18.554;2023-07-24T03:22:27;8.6;;;4.1;;
23360;SDS011;11852;50.082;18.554;2023-07-24T03:23:33;6.2;;;3.8;;
23360;SDS011;11852;50.082;18.554;2023-07-24T03:24:38;7.2;;;4.1;;
23360;SDS011;11852;50.082;18.554;2023-07-24T03:25:42;7.1;;;4.3;;
23360;SDS011;11852;50.082;18.554;2023-07-24T03:26:49;7.8;;;4.4;;
23360;SDS011;11852;50.082;18.554;2023-07-24T03:27:55;9.6;;;4.4;;
23360;SDS011;11852;50.082;18.554;2023-07-24T03:29:00;8.2;;;4.3;;
23360;SDS011;11852;50.082;18.554;2023-07-24T03:30:04;8.3;;;4.1;;
23360;SDS011;11852;50.082;18.554;2023-07-24T03:31:09;6.8;;;4.1;;
23360;SDS011;11852;50.082;18.554;2023-07-24T03:32:16;13.2;;;4.6;;
23360;SDS011;11852;50.082;18.554;2023-07-24T03:33:21;6.9;;;4.1;;
23360;SDS011;11852;50.082;18.554;2023-07-24T03:34:26;7.5;;;4.5;;
23360;SDS011;11852;50.082;18.554;2023-07-24T03:35:31;9.6;;;4.9;;
23360;SDS011;11852;50.082;18.554;2023-07-24T03:36:36;10.4;;;4.7;;
23360;SDS011;11852;50.082;18.554;2023-07-24T03:37:41;10.7;;;5.4;;
23360;SDS011;11852;50.082;18.554;2023-07-24T03:38:47;10.9;;;5.5;;
23360;SDS011;11852;50.082;18.554;2023-07-24T03:39:53;10.9;;;5.3;;
23360;SDS011;11852;50.082;18.554;2023-07-24T03:40:57;10.8;;;5.0;;
23360;SDS011;11852;50.082;18.554;2023-07-24T03:42:02;10.9;;;5.6;;
23360;SDS011;11852;50.082;18.554;2023-07-24T03:43:07;11.2;;;6.0;;
23360;SDS011;11852;50.082;18.554;2023-07-24T03:44:12;11.7;;;5.7;;
23360;SDS011;11852;50.082;18.554;2023-07-24T03:45:17;11.5;;;5.6;;
23360;SDS011;11852;50.082;18.554;2023-07-24T03:46:22;14.0;;;6.5;;
23360;SDS011;11852;50.082;18.554;2023-07-24T03:47:28;12.2;;;6.1;;
23360;SDS011;11852;50.082;18.554;2023-07-24T03:48:35;14.0;;;6.5;;
23360;SDS011;11852;50.082;18.554;2023-07-24T03:49:42;14.1;;;6.9;;
23360;SDS011;11852;50.082;18.554;2023-07-24T03:50:49;14.6;;;8.1;;
23360;SDS011;11852;50.082;18.554;2023-07-24T03:51:55;14.9;;;7.8;;
23360;SDS011;11852;50.082;18.554;2023-07-24T03:53:00;17.2;;;7.7;;
23360;SDS011;11852;50.082;18.554;2023-07-24T03:54:05;15.7;;;7.2;;
23360;SDS011;11852;50.082;18.554;2023-07-24T03:55:10;13.5;;;7.2;;
23360;SDS011;11852;50.082;18.554;2023-07-24T03:56:16;14.0;;;7.3;;
23360;SDS011;11852;50.082;18.554;2023-07-24T03:57:20;14.1;;;6.9;;
23360;SDS011;11852;50.082;18.554;2023-07-24T03:58:25;12.6;;;6.0;;
23360;SDS011;11852;50.082;18.554;2023-07-24T03:59:31;10.5;;;5.8;;
23360;SDS011;11852;50.082;18.554;2023-07-24T04:00:37;9.7;;;5.4;;
23360;SDS011;11852;50.082;18.554;2023-07-24T04:01:43;9.6;;;5.5;;
23360;SDS011;11852;50.082;18.554;2023-07-24T04:02:48;9.9;;;5.3;;
23360;SDS011;11852;50.082;18.554;2023-07-24T04:03:54;11.5;;;5.1;;
23360;SDS011;11852;50.082;18.554;2023-07-24T04:04:59;11.8;;;4.9;;
23360;SDS011;11852;50.082;18.554;2023-07-24T04:06:05;11.2;;;4.7;;
23360;SDS011;11852;50.082;18.554;2023-07-24T04:07:11;12.1;;;5.0;;
23360;SDS011;11852;50.082;18.554;2023-07-24T04:08:16;12.4;;;5.1;;
23360;SDS011;11852;50.082;18.554;2023-07-24T04:09:22;10.1;;;4.6;;
23360;SDS011;11852;50.082;18.554;2023-07-24T04:10:27;9.3;;;4.6;;
23360;SDS011;11852;50.082;18.554;2023-07-24T04:11:37;10.3;;;4.6;;
23360;SDS011;11852;50.082;18.554;2023-07-24T04:12:43;8.6;;;4.4;;
23360;SDS011;11852;50.082;18.554;2023-07-24T04:13:49;8.8;;;4.4;;
23360;SDS011;11852;50.082;18.554;2023-07-24T04:14:54;12.9;;;4.5;;
23360;SDS011;11852;50.082;18.554;2023-07-24T04:16:02;10.3;;;4.8;;
23360;SDS011;11852;50.082;18.554;2023-07-24T04:17:08;9.8;;;4.5;;
23360;SDS011;11852;50.082;18.554;2023-07-24T04:18:13;9.8;;;4.3;;
23360;SDS011;11852;50.082;18.554;2023-07-24T04:19:18;12.0;;;4.9;;
23360;SDS011;11852;50.082;18.554;2023-07-24T04:20:23;8.5;;;4.2;;
23360;SDS011;11852;50.082;18.554;2023-07-24T04:21:28;9.2;;;4.4;;
23360;SDS011;11852;50.082;18.554;2023-07-24T04:22:33;10.7;;;4.8;;
23360;SDS011;11852;50.082;18.554;2023-07-24T04:23:38;8.5;;;4.2;;
23360;SDS011;11852;50.082;18.554;2023-07-24T04:24:43;12.6;;;4.8;;
23360;SDS011;11852;50.082;18.554;2023-07-24T04:25:50;11.2;;;5.0;;
23360;SDS011;11852;50.082;18.554;2023-07-24T04:26:55;8.3;;;4.4;;
23360;SDS011;11852;50.082;18.554;2023-07-24T04:28:00;7.5;;;4.7;;
23360;SDS011;11852;50.082;18.554;2023-07-24T04:29:05;8.7;;;4.7;;
23360;SDS011;11852;50.082;18.554;2023-07-24T04:30:09;8.3;;;4.3;;
23360;SDS011;11852;50.082;18.554;2023-07-24T04:31:16;8.5;;;4.1;;
23360;SDS011;11852;50.082;18.554;2023-07-24T04:32:20;8.6;;;4.4;;
23360;SDS011;11852;50.082;18.554;2023-07-24T04:33:26;8.7;;;4.9;;
23360;SDS011;11852;50.082;18.554;2023-07-24T04:34:32;8.8;;;5.0;;
23360;SDS011;11852;50.082;18.554;2023-07-24T04:35:39;10.3;;;5.0;;
23360;SDS011;11852;50.082;18.554;2023-07-24T04:36:43;9.2;;;5.1;;
23360;SDS011;11852;50.082;18.554;2023-07-24T04:37:48;13.0;;;6.0;;
23360;SDS011;11852;50.082;18.554;2023-07-24T04:38:54;14.0;;;6.3;;
23360;SDS011;11852;50.082;18.554;2023-07-24T04:40:00;14.6;;;7.2;;
23360;SDS011;11852;50.082;18.554;2023-07-24T04:41:05;14.5;;;7.1;;
23360;SDS011;11852;50.082;18.554;2023-07-24T04:42:10;14.1;;;7.6;;
23360;SDS011;11852;50.082;18.554;2023-07-24T04:43:15;16.0;;;7.3;;
23360;SDS011;11852;50.082;18.554;2023-07-24T04:44:21;15.0;;;7.5;;
23360;SDS011;11852;50.082;18.554;2023-07-24T04:45:26;15.4;;;7.0;;
23360;SDS011;11852;50.082;18.554;2023-07-24T04:46:32;13.7;;;6.9;;
23360;SDS011;11852;50.082;18.554;2023-07-24T04:47:37;12.5;;;6.7;;
23360;SDS011;11852;50.082;18.554;2023-07-24T04:48:42;13.8;;;6.6;;
23360;SDS011;11852;50.082;18.554;2023-07-24T04:49:47;12.6;;;6.5;;
23360;SDS011;11852;50.082;18.554;2023-07-24T04:50:55;12.9;;;6.4;;
23360;SDS011;11852;50.082;18.554;2023-07-24T04:51:59;11.2;;;5.7;;
23360;SDS011;11852;50.082;18.554;2023-07-24T04:53:04;9.8;;;5.3;;
23360;SDS011;11852;50.082;18.554;2023-07-24T04:54:09;9.7;;;5.1;;
23360;SDS011;11852;50.082;18.554;2023-07-24T04:55:14;9.8;;;5.2;;
23360;SDS011;11852;50.082;18.554;2023-07-24T04:56:18;9.5;;;4.8;;
23360;SDS011;11852;50.082;18.554;2023-07-24T04:57:23;9.7;;;4.4;;
23360;SDS011;11852;50.082;18.554;2023-07-24T04:58:28;8.3;;;4.7;;
23360;SDS011;11852;50.082;18.554;2023-07-24T04:59:33;8.3;;;4.1;;
23360;SDS011;11852;50.082;18.554;2023-07-24T05:00:37;9.5;;;4.6;;
23360;SDS011;11852;50.082;18.554;2023-07-24T05:01:43;8.3;;;4.8;;
23360;SDS011;11852;50.082;18.554;2023-07-24T05:02:47;8.4;;;4.2;;
23360;SDS011;11852;50.082;18.554;2023-07-24T05:03:52;8.6;;;4.7;;
23360;SDS011;11852;50.082;18.554;2023-07-24T05:04:58;7.6;;;4.8;;
23360;SDS011;11852;50.082;18.554;2023-07-24T05:06:03;8.1;;;4.3;;
23360;SDS011;11852;50.082;18.554;2023-07-24T05:07:08;6.7;;;4.4;;
23360;SDS011;11852;50.082;18.554;2023-07-24T05:08:13;8.4;;;4.8;;
23360;SDS011;11852;50.082;18.554;2023-07-24T05:09:17;8.1;;;4.3;;
23360;SDS011;11852;50.082;18.554;2023-07-24T05:10:24;8.2;;;4.7;;
23360;SDS011;11852;50.082;18.554;2023-07-24T05:11:28;8.9;;;4.6;;
23360;SDS011;11852;50.082;18.554;2023-07-24T05:12:35;7.6;;;4.8;;
23360;SDS011;11852;50.082;18.554;2023-07-24T05:13:39;9.9;;;4.8;;
23360;SDS011;11852;50.082;18.554;2023-07-24T05:14:45;8.0;;;4.8;;
23360;SDS011;11852;50.082;18.554;2023-07-24T05:15:50;8.0;;;4.8;;
23360;SDS011;11852;50.082;18.554;2023-07-24T05:16:56;8.2;;;4.8;;
23360;SDS011;11852;50.082;18.554;2023-07-24T05:18:01;8.5;;;4.7;;
23360;SDS011;11852;50.082;18.554;2023-07-24T05:19:06;8.0;;;4.9;;
23360;SDS011;11852;50.082;18.554;2023-07-24T05:20:11;10.1;;;5.1;;
23360;SDS011;11852;50.082;18.554;2023-07-24T05:21:16;10.1;;;4.8;;
23360;SDS011;11852;50.082;18.554;2023-07-24T05:22:22;8.9;;;4.8;;
23360;SDS011;11852;50.082;18.554;2023-07-24T05:23:27;8.5;;;4.5;;
23360;SDS011;11852;50.082;18.554;2023-07-24T05:24:31;9.0;;;4.6;;
23360;SDS011;11852;50.082;18.554;2023-07-24T05:25:36;8.1;;;4.7;;
23360;SDS011;11852;50.082;18.554;2023-07-24T05:26:42;8.9;;;4.8;;
23360;SDS011;11852;50.082;18.554;2023-07-24T05:27:47;8.7;;;5.1;;
23360;SDS011;11852;50.082;18.554;2023-07-24T05:28:52;10.4;;;5.0;;
23360;SDS011;11852;50.082;18.554;2023-07-24T05:30:00;9.9;;;5.1;;
23360;SDS011;11852;50.082;18.554;2023-07-24T05:31:05;8.3;;;5.2;;
23360;SDS011;11852;50.082;18.554;2023-07-24T05:32:10;10.9;;;5.3;;
23360;SDS011;11852;50.082;18.554;2023-07-24T05:33:16;7.9;;;4.8;;
23360;SDS011;11852;50.082;18.554;2023-07-24T05:34:21;7.9;;;4.8;;
23360;SDS011;11852;50.082;18.554;2023-07-24T05:35:26;9.4;;;5.2;;
23360;SDS011;11852;50.082;18.554;2023-07-24T05:36:31;10.1;;;5.2;;
23360;SDS011;11852;50.082;18.554;2023-07-24T05:37:36;8.7;;;5.3;;
23360;SDS011;11852;50.082;18.554;2023-07-24T05:38:40;9.5;;;5.5;;
23360;SDS011;11852;50.082;18.554;2023-07-24T05:39:45;9.1;;;5.7;;
23360;SDS011;11852;50.082;18.554;2023-07-24T05:41:09;9.0;;;5.7;;
23360;SDS011;11852;50.082;18.554;2023-07-24T05:42:04;10.6;;;5.4;;
23360;SDS011;11852;50.082;18.554;2023-07-24T05:43:09;10.4;;;5.8;;
23360;SDS011;11852;50.082;18.554;2023-07-24T05:44:15;10.7;;;5.6;;
23360;SDS011;11852;50.082;18.554;2023-07-24T05:45:20;12.5;;;6.3;;
23360;SDS011;11852;50.082;18.554;2023-07-24T05:46:24;11.2;;;5.8;;
23360;SDS011;11852;50.082;18.554;2023-07-24T05:47:30;10.5;;;6.0;;
23360;SDS011;11852;50.082;18.554;2023-07-24T05:48:35;10.5;;;5.7;;
23360;SDS011;11852;50.082;18.554;2023-07-24T05:49:40;11.8;;;5.6;;
23360;SDS011;11852;50.082;18.554;2023-07-24T05:50:45;12.3;;;5.4;;
23360;SDS011;11852;50.082;18.554;2023-07-24T05:51:52;9.0;;;5.2;;
23360;SDS011;11852;50.082;18.554;2023-07-24T05:52:58;9.5;;;5.8;;
23360;SDS011;11852;50.082;18.554;2023-07-24T05:54:03;10.5;;;5.6;;
23360;SDS011;11852;50.082;18.554;2023-07-24T05:55:08;9.3;;;5.6;;
23360;SDS011;11852;50.082;18.554;2023-07-24T05:56:13;12.0;;;5.3;;
23360;SDS011;11852;50.082;18.554;2023-07-24T05:57:18;10.2;;;5.6;;
23360;SDS011;11852;50.082;18.554;2023-07-24T05:58:26;11.2;;;5.6;;
23360;SDS011;11852;50.082;18.554;2023-07-24T05:59:31;9.5;;;5.5;;
23360;SDS011;11852;50.082;18.554;2023-07-24T06:00:37;11.5;;;5.9;;
23360;SDS011;11852;50.082;18.554;2023-07-24T06:01:41;11.6;;;6.0;;
23360;SDS011;11852;50.082;18.554;2023-07-24T06:02:46;12.3;;;6.4;;
23360;SDS011;11852;50.082;18.554;2023-07-24T06:03:51;11.3;;;5.9;;
23360;SDS011;11852;50.082;18.554;2023-07-24T06:04:57;12.4;;;6.2;;
23360;SDS011;11852;50.082;18.554;2023-07-24T06:06:02;12.0;;;6.2;;
23360;SDS011;11852;50.082;18.554;2023-07-24T06:07:07;10.0;;;5.8;;
23360;SDS011;11852;50.082;18.554;2023-07-24T06:08:13;10.8;;;5.9;;
23360;SDS011;11852;50.082;18.554;2023-07-24T06:09:18;13.3;;;6.4;;
23360;SDS011;11852;50.082;18.554;2023-07-24T06:10:22;11.3;;;5.8;;
23360;SDS011;11852;50.082;18.554;2023-07-24T06:11:27;9.7;;;5.3;;
23360;SDS011;11852;50.082;18.554;2023-07-24T06:12:33;12.5;;;5.9;;
23360;SDS011;11852;50.082;18.554;2023-07-24T06:13:38;10.7;;;5.9;;
23360;SDS011;11852;50.082;18.554;2023-07-24T06:14:43;11.0;;;5.5;;
23360;SDS011;11852;50.082;18.554;2023-07-24T06:15:49;9.7;;;5.4;;
23360;SDS011;11852;50.082;18.554;2023-07-24T06:16:53;10.2;;;5.4;;
23360;SDS011;11852;50.082;18.554;2023-07-24T06:17:58;9.1;;;5.2;;
23360;SDS011;11852;50.082;18.554;2023-07-24T06:19:03;10.9;;;5.5;;
23360;SDS011;11852;50.082;18.554;2023-07-24T06:20:08;9.9;;;5.3;;
23360;SDS011;11852;50.082;18.554;2023-07-24T06:21:14;10.7;;;5.5;;
23360;SDS011;11852;50.082;18.554;2023-07-24T06:22:19;9.5;;;5.2;;
23360;SDS011;11852;50.082;18.554;2023-07-24T06:23:25;12.3;;;5.2;;
23360;SDS011;11852;50.082;18.554;2023-07-24T06:24:30;11.6;;;5.8;;
23360;SDS011;11852;50.082;18.554;2023-07-24T06:25:35;9.8;;;5.0;;
23360;SDS011;11852;50.082;18.554;2023-07-24T06:26:40;9.8;;;5.1;;
23360;SDS011;11852;50.082;18.554;2023-07-24T06:27:44;9.7;;;5.3;;
23360;SDS011;11852;50.082;18.554;2023-07-24T06:28:49;9.7;;;4.8;;
23360;SDS011;11852;50.082;18.554;2023-07-24T06:29:54;11.9;;;5.4;;
23360;SDS011;11852;50.082;18.554;2023-07-24T06:30:58;8.3;;;5.2;;
23360;SDS011;11852;50.082;18.554;2023-07-24T06:32:03;10.7;;;5.4;;
23360;SDS011;11852;50.082;18.554;2023-07-24T06:33:08;9.9;;;5.4;;
23360;SDS011;11852;50.082;18.554;2023-07-24T06:34:14;10.8;;;5.3;;
23360;SDS011;11852;50.082;18.554;2023-07-24T06:35:20;8.8;;;5.1;;
23360;SDS011;11852;50.082;18.554;2023-07-24T06:36:25;10.7;;;4.9;;
23360;SDS011;11852;50.082;18.554;2023-07-24T06:37:29;8.8;;;4.9;;
23360;SDS011;11852;50.082;18.554;2023-07-24T06:38:34;9.5;;;5.1;;
23360;SDS011;11852;50.082;18.554;2023-07-24T06:39:39;9.5;;;4.9;;
23360;SDS011;11852;50.082;18.554;2023-07-24T06:40:44;8.8;;;4.6;;
23360;SDS011;11852;50.082;18.554;2023-07-24T06:41:50;8.6;;;5.1;;
23360;SDS011;11852;50.082;18.554;2023-07-24T06:42:54;9.3;;;4.9;;